Scott, Arkansas
Current Conditions -  °F | °C
As of 6:53 AM on Saturday 25 Oct 2014 (Local Time) from KLIT Reporting Station
Clear Clear  
Wind Chill: 58°   Ceiling: Unl
Heat Index: 58°   Visibility: 7mi
Dew Point: 55°   Wind: 6mph
Humidity: 90%   Direction: 250°WSW
Pressure: 30.11"   Gusts: NA
Location:  34.7°N, 92.1°W
Report Text: KLIT 251153Z 25005KT 7SM CLR 14/13 A3011 RMK AO2 SLP197 T01440128 10156 20139 53006
Loading
Personal Weather Stations






























Interactive Weather Map
Tropical Storm Tracking
New forecast layout! Learn more

10-Day Weather Forecast

Advertisements
Track Severe Weather on mobile